Elizabeth, West Virginia
Current Conditions -  °F | °C
As of 3:53 AM on Tuesday 21 Oct 2014 (Local Time) from KPKB Reporting Station
Clear Clear  
Wind Chill: 50°   Ceiling: Unl
Heat Index: 50°   Visibility: 10mi
Dew Point: 47°   Wind: 5mph
Humidity: 89%   Direction: 220°SW
Pressure: 29.91"   Gusts: NA
Location:  39.06°N, 81.4°W
Report Text: KPKB 210753Z AUTO 22004KT 10SM CLR 10/08 A2991 RMK AO2 SLP127 T01000083
Loading
Personal Weather Stations






























Interactive Weather Map
Tropical Storm Tracking
New forecast layout! Learn more

10-Day Weather Forecast

Advertisements
Track Severe Weather on mobile